sensor_id;sensor_type;location;lat;lon;timestamp;pressure;altitude;pressure_sealevel;temperature;humidity
76858;BME280;65830;0.000;0.000;2024-01-10T00:02:20;101098.59;;;-0.14;100.00
76858;BME280;65830;0.000;0.000;2024-01-10T00:04:45;101099.31;;;-0.09;100.00
76858;BME280;65830;0.000;0.000;2024-01-10T00:07:11;101110.38;;;0.03;100.00
76858;BME280;65830;0.000;0.000;2024-01-10T00:09:36;101114.00;;;-0.05;100.00
76858;BME280;65830;0.000;0.000;2024-01-10T00:12:02;101102.53;;;0.03;100.00
76858;BME280;65830;0.000;0.000;2024-01-10T00:14:27;101110.69;;;0.26;100.00
76858;BME280;65830;0.000;0.000;2024-01-10T00:16:53;101119.81;;;0.08;100.00
76858;BME280;65830;0.000;0.000;2024-01-10T00:19:18;101110.81;;;0.20;100.00
76858;BME280;65830;0.000;0.000;2024-01-10T00:21:44;101108.56;;;0.05;100.00
76858;BME280;65830;0.000;0.000;2024-01-10T00:24:09;101108.47;;;0.09;100.00
76858;BME280;65830;0.000;0.000;2024-01-10T00:26:35;101118.88;;;0.11;100.00
76858;BME280;65830;0.000;0.000;2024-01-10T00:29:00;101112.16;;;-0.38;100.00
76858;BME280;65830;0.000;0.000;2024-01-10T00:31:26;101110.84;;;-0.19;100.00
76858;BME280;65830;0.000;0.000;2024-01-10T00:33:51;101122.44;;;-0.32;100.00
76858;BME280;65830;0.000;0.000;2024-01-10T00:36:17;101125.59;;;-0.18;100.00
76858;BME280;65830;0.000;0.000;2024-01-10T00:38:42;101127.53;;;-0.26;100.00
76858;BME280;65830;0.000;0.000;2024-01-10T00:41:08;101126.69;;;-0.27;100.00
76858;BME280;65830;0.000;0.000;2024-01-10T00:43:33;101121.41;;;-0.24;100.00
76858;BME280;65830;0.000;0.000;2024-01-10T00:45:59;101127.47;;;-0.23;100.00
76858;BME280;65830;0.000;0.000;2024-01-10T00:48:24;101134.03;;;-0.05;100.00
76858;BME280;65830;0.000;0.000;2024-01-10T00:50:50;101131.38;;;-0.04;100.00
76858;BME280;65830;0.000;0.000;2024-01-10T00:53:15;101131.78;;;0.17;100.00
76858;BME280;65830;0.000;0.000;2024-01-10T00:55:41;101134.66;;;0.06;100.00
76858;BME280;65830;0.000;0.000;2024-01-10T00:58:06;101132.69;;;0.16;100.00
76858;BME280;65830;0.000;0.000;2024-01-10T01:00:32;101129.97;;;0.19;99.76
76858;BME280;65830;0.000;0.000;2024-01-10T01:02:58;101137.75;;;-0.15;100.00
76858;BME280;65830;0.000;0.000;2024-01-10T01:05:23;101139.03;;;0.04;100.00
76858;BME280;65830;0.000;0.000;2024-01-10T01:07:49;101129.69;;;0.31;97.92
76858;BME280;65830;0.000;0.000;2024-01-10T01:10:14;101122.59;;;0.36;96.98
76858;BME280;65830;0.000;0.000;2024-01-10T01:12:40;101123.03;;;0.54;96.16
76858;BME280;65830;0.000;0.000;2024-01-10T01:15:06;101123.94;;;0.51;94.93
76858;BME280;65830;0.000;0.000;2024-01-10T01:17:31;101133.03;;;0.36;96.05
76858;BME280;65830;0.000;0.000;2024-01-10T01:19:57;101136.78;;;0.26;95.20
76858;BME280;65830;0.000;0.000;2024-01-10T01:22:22;101121.19;;;0.23;95.65
76858;BME280;65830;0.000;0.000;2024-01-10T01:24:48;101125.13;;;0.04;96.84
76858;BME280;65830;0.000;0.000;2024-01-10T01:27:13;101128.31;;;-0.23;98.47
76858;BME280;65830;0.000;0.000;2024-01-10T01:29:39;101131.72;;;-0.19;99.04
76858;BME280;65830;0.000;0.000;2024-01-10T01:32:04;101129.47;;;0.05;98.21
76858;BME280;65830;0.000;0.000;2024-01-10T01:34:30;101128.97;;;0.25;96.55
76858;BME280;65830;0.000;0.000;2024-01-10T01:36:55;101120.78;;;0.04;97.38
76858;BME280;65830;0.000;0.000;2024-01-10T01:39:21;101131.06;;;0.10;97.48
76858;BME280;65830;0.000;0.000;2024-01-10T01:41:46;101131.47;;;-0.08;98.68
76858;BME280;65830;0.000;0.000;2024-01-10T01:44:13;101124.75;;;-0.18;99.79
76858;BME280;65830;0.000;0.000;2024-01-10T01:46:38;101137.34;;;0.02;98.61
76858;BME280;65830;0.000;0.000;2024-01-10T01:49:06;101137.97;;;0.13;98.08
76858;BME280;65830;0.000;0.000;2024-01-10T01:51:32;101138.00;;;0.10;98.49
76858;BME280;65830;0.000;0.000;2024-01-10T01:53:59;101134.19;;;0.25;97.07
76858;BME280;65830;0.000;0.000;2024-01-10T01:56:25;101128.75;;;0.34;95.29
76858;BME280;65830;0.000;0.000;2024-01-10T01:58:51;101122.47;;;0.05;95.49
76858;BME280;65830;0.000;0.000;2024-01-10T02:01:17;101121.13;;;-0.11;97.60
76858;BME280;65830;0.000;0.000;2024-01-10T02:03:46;101113.75;;;-0.31;97.77
76858;BME280;65830;0.000;0.000;2024-01-10T02:06:12;101109.06;;;-0.56;99.79
76858;BME280;65830;0.000;0.000;2024-01-10T02:08:37;101114.97;;;-0.48;100.00
76858;BME280;65830;0.000;0.000;2024-01-10T02:11:03;101111.56;;;-0.12;99.60
76858;BME280;65830;0.000;0.000;2024-01-10T02:13:29;101105.81;;;0.11;97.12
76858;BME280;65830;0.000;0.000;2024-01-10T02:15:55;101096.03;;;-0.17;97.00
76858;BME280;65830;0.000;0.000;2024-01-10T02:18:21;101106.44;;;-0.15;97.58
76858;BME280;65830;0.000;0.000;2024-01-10T02:20:47;101107.91;;;-0.04;97.55
76858;BME280;65830;0.000;0.000;2024-01-10T02:23:12;101103.03;;;-0.19;96.53
76858;BME280;65830;0.000;0.000;2024-01-10T02:25:38;101103.72;;;-0.11;97.30
76858;BME280;65830;0.000;0.000;2024-01-10T02:28:04;101100.88;;;0.00;96.24
76858;BME280;65830;0.000;0.000;2024-01-10T02:30:30;101098.47;;;-0.09;95.76
76858;BME280;65830;0.000;0.000;2024-01-10T02:32:55;101095.44;;;-0.30;96.53
76858;BME280;65830;0.000;0.000;2024-01-10T02:35:21;101102.75;;;-0.07;94.98
76858;BME280;65830;0.000;0.000;2024-01-10T02:37:46;101099.50;;;-0.18;94.83
76858;BME280;65830;0.000;0.000;2024-01-10T02:40:12;101096.22;;;-0.26;94.06
76858;BME280;65830;0.000;0.000;2024-01-10T02:42:38;101094.59;;;-0.30;95.36
76858;BME280;65830;0.000;0.000;2024-01-10T02:45:04;101096.03;;;-0.17;95.47
76858;BME280;65830;0.000;0.000;2024-01-10T02:47:30;101100.47;;;-0.22;95.36
76858;BME280;65830;0.000;0.000;2024-01-10T02:49:55;101096.53;;;-0.01;95.40
76858;BME280;65830;0.000;0.000;2024-01-10T02:52:21;101096.69;;;-0.07;93.31
76858;BME280;65830;0.000;0.000;2024-01-10T02:54:46;101087.72;;;0.03;92.49
76858;BME280;65830;0.000;0.000;2024-01-10T02:57:12;101100.81;;;0.02;93.13
76858;BME280;65830;0.000;0.000;2024-01-10T02:59:38;101107.34;;;0.19;92.41
76858;BME280;65830;0.000;0.000;2024-01-10T03:02:04;101093.84;;;0.38;91.40
76858;BME280;65830;0.000;0.000;2024-01-10T03:04:29;101099.13;;;0.35;90.45
76858;BME280;65830;0.000;0.000;2024-01-10T03:06:55;101101.22;;;0.22;90.26
76858;BME280;65830;0.000;0.000;2024-01-10T03:09:21;101098.09;;;0.06;90.88
76858;BME280;65830;0.000;0.000;2024-01-10T03:11:47;101093.06;;;-0.02;92.20
76858;BME280;65830;0.000;0.000;2024-01-10T03:14:12;101090.13;;;0.12;91.74
76858;BME280;65830;0.000;0.000;2024-01-10T03:16:38;101088.44;;;0.10;91.46
76858;BME280;65830;0.000;0.000;2024-01-10T03:19:03;101095.50;;;0.06;92.14
76858;BME280;65830;0.000;0.000;2024-01-10T03:21:29;101087.41;;;0.17;92.64
76858;BME280;65830;0.000;0.000;2024-01-10T03:23:58;101079.72;;;0.11;92.10
76858;BME280;65830;0.000;0.000;2024-01-10T03:26:23;101087.75;;;0.37;90.10
76858;BME280;65830;0.000;0.000;2024-01-10T03:28:49;101089.47;;;0.38;89.51
76858;BME280;65830;0.000;0.000;2024-01-10T03:31:15;101083.03;;;0.52;89.28
76858;BME280;65830;0.000;0.000;2024-01-10T03:33:41;101092.56;;;0.54;89.01
76858;BME280;65830;0.000;0.000;2024-01-10T03:36:06;101096.75;;;0.60;87.75
76858;BME280;65830;0.000;0.000;2024-01-10T03:38:32;101091.09;;;0.43;88.87
76858;BME280;65830;0.000;0.000;2024-01-10T03:40:58;101097.03;;;0.49;88.05
76858;BME280;65830;0.000;0.000;2024-01-10T03:43:23;101090.72;;;0.58;87.08
76858;BME280;65830;0.000;0.000;2024-01-10T03:45:49;101093.84;;;0.38;87.56
76858;BME280;65830;0.000;0.000;2024-01-10T03:48:14;101091.41;;;0.32;87.46
76858;BME280;65830;0.000;0.000;2024-01-10T03:50:40;101095.16;;;0.20;88.09
76858;BME280;65830;0.000;0.000;2024-01-10T03:53:06;101095.56;;;0.37;86.59
76858;BME280;65830;0.000;0.000;2024-01-10T03:55:31;101090.41;;;0.36;87.15
76858;BME280;65830;0.000;0.000;2024-01-10T03:57:57;101091.59;;;0.24;87.67
76858;BME280;65830;0.000;0.000;2024-01-10T04:00:22;101098.09;;;0.06;88.80
76858;BME280;65830;0.000;0.000;2024-01-10T04:02:48;101092.91;;;0.05;89.44
76858;BME280;65830;0.000;0.000;2024-01-10T04:05:14;101106.44;;;-0.15;89.00
76858;BME280;65830;0.000;0.000;2024-01-10T04:07:40;101101.38;;;-0.23;89.64
76858;BME280;65830;0.000;0.000;2024-01-10T04:10:07;101106.75;;;-0.29;90.45
76858;BME280;65830;0.000;0.000;2024-01-10T04:12:36;101098.34;;;-0.05;90.15
76858;BME280;65830;0.000;0.000;2024-01-10T04:15:01;101106.09;;;0.00;89.18
76858;BME280;65830;0.000;0.000;2024-01-10T04:17:27;101102.84;;;-0.10;88.60
76858;BME280;65830;0.000;0.000;2024-01-10T04:19:52;101107.16;;;-0.10;89.49
76858;BME280;65830;0.000;0.000;2024-01-10T04:22:18;101110.19;;;0.10;89.58
76858;BME280;65830;0.000;0.000;2024-01-10T04:24:44;101101.03;;;0.30;88.12
76858;BME280;65830;0.000;0.000;2024-01-10T04:27:09;101108.25;;;0.18;87.22
76858;BME280;65830;0.000;0.000;2024-01-10T04:29:35;101109.72;;;-0.07;88.59
76858;BME280;65830;0.000;0.000;2024-01-10T04:32:00;101119.31;;;0.28;88.67
76858;BME280;65830;0.000;0.000;2024-01-10T04:34:26;101115.13;;;-0.16;90.07
76858;BME280;65830;0.000;0.000;2024-01-10T04:36:51;101113.28;;;-0.10;90.26
76858;BME280;65830;0.000;0.000;2024-01-10T04:39:17;101124.28;;;0.02;90.26
76858;BME280;65830;0.000;0.000;2024-01-10T04:41:42;101124.72;;;-0.17;90.18
76858;BME280;65830;0.000;0.000;2024-01-10T04:44:08;101122.53;;;-0.35;91.02
76858;BME280;65830;0.000;0.000;2024-01-10T04:46:36;101122.72;;;-0.45;92.13
76858;BME280;65830;0.000;0.000;2024-01-10T04:49:01;101136.78;;;-0.52;91.33
76858;BME280;65830;0.000;0.000;2024-01-10T04:51:30;101132.84;;;-0.71;92.68
76858;BME280;65830;0.000;0.000;2024-01-10T04:53:59;101138.41;;;-0.48;93.25
76858;BME280;65830;0.000;0.000;2024-01-10T04:56:24;101135.66;;;-0.40;92.94
76858;BME280;65830;0.000;0.000;2024-01-10T04:58:50;101150.41;;;-0.37;91.43
76858;BME280;65830;0.000;0.000;2024-01-10T05:01:16;101140.25;;;-0.12;90.33
76858;BME280;65830;0.000;0.000;2024-01-10T05:03:41;101148.25;;;-0.20;90.25
76858;BME280;65830;0.000;0.000;2024-01-10T05:06:07;101144.78;;;-0.19;89.84
76858;BME280;65830;0.000;0.000;2024-01-10T05:08:32;101148.16;;;-0.14;89.73
76858;BME280;65830;0.000;0.000;2024-01-10T05:10:58;101144.59;;;-0.11;88.76
76858;BME280;65830;0.000;0.000;2024-01-10T05:13:23;101153.69;;;-0.29;89.06
76858;BME280;65830;0.000;0.000;2024-01-10T05:15:49;101151.41;;;-0.45;89.59
76858;BME280;65830;0.000;0.000;2024-01-10T05:18:15;101154.91;;;-0.46;90.75
76858;BME280;65830;0.000;0.000;2024-01-10T05:20:41;101156.56;;;-0.42;90.50
76858;BME280;65830;0.000;0.000;2024-01-10T05:23:06;101157.50;;;-0.46;90.70
76858;BME280;65830;0.000;0.000;2024-01-10T05:25:32;101166.94;;;-0.40;92.45
76858;BME280;65830;0.000;0.000;2024-01-10T05:27:57;101161.06;;;-0.50;91.35
76858;BME280;65830;0.000;0.000;2024-01-10T05:30:23;101152.56;;;-0.60;92.94
76858;BME280;65830;0.000;0.000;2024-01-10T05:32:49;101162.25;;;-0.65;93.21
76858;BME280;65830;0.000;0.000;2024-01-10T05:35:15;101159.13;;;-0.82;94.66
76858;BME280;65830;0.000;0.000;2024-01-10T05:37:40;101169.78;;;-0.94;95.36
76858;BME280;65830;0.000;0.000;2024-01-10T05:40:06;101168.94;;;-0.95;96.85
76858;BME280;65830;0.000;0.000;2024-01-10T05:42:31;101167.88;;;-0.86;95.64
76858;BME280;65830;0.000;0.000;2024-01-10T05:44:58;101164.34;;;-0.84;95.24
76858;BME280;65830;0.000;0.000;2024-01-10T05:47:24;101170.25;;;-0.75;94.51
76858;BME280;65830;0.000;0.000;2024-01-10T05:49:51;101174.34;;;-0.62;93.23
76858;BME280;65830;0.000;0.000;2024-01-10T05:52:18;101166.53;;;-0.62;91.87
76858;BME280;65830;0.000;0.000;2024-01-10T05:54:44;101168.47;;;-0.72;91.74
76858;BME280;65830;0.000;0.000;2024-01-10T05:57:09;101169.63;;;-0.87;92.46
76858;BME280;65830;0.000;0.000;2024-01-10T05:59:35;101169.75;;;-0.93;92.43
76858;BME280;65830;0.000;0.000;2024-01-10T06:02:01;101174.03;;;-0.89;92.24
76858;BME280;65830;0.000;0.000;2024-01-10T06:04:28;101175.84;;;-0.94;91.64
76858;BME280;65830;0.000;0.000;2024-01-10T06:06:57;101182.38;;;-1.20;91.09
76858;BME280;65830;0.000;0.000;2024-01-10T06:09:22;101175.69;;;-1.34;92.44
76858;BME280;65830;0.000;0.000;2024-01-10T06:11:48;101180.00;;;-1.32;92.71
76858;BME280;65830;0.000;0.000;2024-01-10T06:14:14;101183.97;;;-1.11;89.36
76858;BME280;65830;0.000;0.000;2024-01-10T06:16:39;101185.66;;;-1.08;86.02
76858;BME280;65830;0.000;0.000;2024-01-10T06:19:05;101187.75;;;-1.29;83.56
76858;BME280;65830;0.000;0.000;2024-01-10T06:21:30;101196.47;;;-1.31;87.35
76858;BME280;65830;0.000;0.000;2024-01-10T06:23:56;101199.06;;;-1.31;88.54
76858;BME280;65830;0.000;0.000;2024-01-10T06:26:21;101201.69;;;-1.31;88.10
76858;BME280;65830;0.000;0.000;2024-01-10T06:28:47;101217.19;;;-1.24;88.45
76858;BME280;65830;0.000;0.000;2024-01-10T06:31:13;101212.81;;;-1.23;90.15
76858;BME280;65830;0.000;0.000;2024-01-10T06:33:38;101220.69;;;-1.25;93.79
76858;BME280;65830;0.000;0.000;2024-01-10T06:36:04;101226.53;;;-1.13;95.66
76858;BME280;65830;0.000;0.000;2024-01-10T06:38:29;101225.59;;;-1.08;97.91
76858;BME280;65830;0.000;0.000;2024-01-10T06:40:55;101231.84;;;-1.18;98.81
76858;BME280;65830;0.000;0.000;2024-01-10T06:43:21;101231.50;;;-0.98;99.73
76858;BME280;65830;0.000;0.000;2024-01-10T06:45:46;101231.31;;;-0.87;99.45
76858;BME280;65830;0.000;0.000;2024-01-10T06:48:13;101228.09;;;-1.03;100.00
76858;BME280;65830;0.000;0.000;2024-01-10T06:50:39;101231.56;;;-1.01;100.00
76858;BME280;65830;0.000;0.000;2024-01-10T06:53:04;101233.50;;;-1.12;100.00
76858;BME280;65830;0.000;0.000;2024-01-10T06:55:30;101238.59;;;-1.06;100.00
76858;BME280;65830;0.000;0.000;2024-01-10T06:57:55;101244.63;;;-1.03;100.00
76858;BME280;65830;0.000;0.000;2024-01-10T07:00:21;101241.22;;;-1.08;100.00
76858;BME280;65830;0.000;0.000;2024-01-10T07:02:49;101245.50;;;-1.05;100.00
76858;BME280;65830;0.000;0.000;2024-01-10T07:05:14;101239.47;;;-1.07;100.00
76858;BME280;65830;0.000;0.000;2024-01-10T07:07:40;101246.31;;;-1.00;100.00
76858;BME280;65830;0.000;0.000;2024-01-10T07:10:06;101245.34;;;-0.96;100.00
76858;BME280;65830;0.000;0.000;2024-01-10T07:12:35;101248.81;;;-0.95;100.00
76858;BME280;65830;0.000;0.000;2024-01-10T07:15:00;101246.41;;;-0.58;100.00
76858;BME280;65830;0.000;0.000;2024-01-10T07:17:28;101251.94;;;-0.75;99.66
76858;BME280;65830;0.000;0.000;2024-01-10T07:19:53;101248.78;;;-0.94;99.45
76858;BME280;65830;0.000;0.000;2024-01-10T07:22:22;101253.31;;;-1.04;100.00
76858;BME280;65830;0.000;0.000;2024-01-10T07:24:47;101256.81;;;-1.06;100.00
76858;BME280;65830;0.000;0.000;2024-01-10T07:27:13;101260.53;;;-1.21;100.00
76858;BME280;65830;0.000;0.000;2024-01-10T07:29:40;101267.13;;;-1.00;100.00
76858;BME280;65830;0.000;0.000;2024-01-10T07:32:06;101270.41;;;-0.87;100.00
76858;BME280;65830;0.000;0.000;2024-01-10T07:34:35;101267.59;;;-0.76;100.00
76858;BME280;65830;0.000;0.000;2024-01-10T07:37:00;101274.38;;;-0.66;99.01
76858;BME280;65830;0.000;0.000;2024-01-10T07:39:26;101279.56;;;-0.66;96.77
76858;BME280;65830;0.000;0.000;2024-01-10T07:41:51;101270.78;;;-0.59;96.16
76858;BME280;65830;0.000;0.000;2024-01-10T07:44:17;101277.56;;;-0.52;94.60
76858;BME280;65830;0.000;0.000;2024-01-10T07:46:42;101280.88;;;-0.42;94.41
76858;BME280;65830;0.000;0.000;2024-01-10T07:49:11;101283.84;;;-0.62;92.10
76858;BME280;65830;0.000;0.000;2024-01-10T07:51:36;101282.06;;;-0.60;92.71
76858;BME280;65830;0.000;0.000;2024-01-10T07:54:02;101279.81;;;-0.78;92.87
76858;BME280;65830;0.000;0.000;2024-01-10T07:56:27;101287.84;;;-0.91;94.39
76858;BME280;65830;0.000;0.000;2024-01-10T07:58:53;101283.59;;;-0.96;95.85
76858;BME280;65830;0.000;0.000;2024-01-10T08:01:18;101292.00;;;-0.81;95.83
76858;BME280;65830;0.000;0.000;2024-01-10T08:03:44;101293.66;;;-0.76;95.93
76858;BME280;65830;0.000;0.000;2024-01-10T08:06:09;101291.75;;;-0.65;95.59
76858;BME280;65830;0.000;0.000;2024-01-10T08:08:37;101289.25;;;-0.71;95.99
76858;BME280;65830;0.000;0.000;2024-01-10T08:11:03;101293.56;;;-0.70;97.10
76858;BME280;65830;0.000;0.000;2024-01-10T08:13:28;101283.34;;;-0.83;98.83
76858;BME280;65830;0.000;0.000;2024-01-10T08:15:54;101292.25;;;-0.96;100.00
76858;BME280;65830;0.000;0.000;2024-01-10T08:18:20;101294.00;;;-0.95;100.00
76858;BME280;65830;0.000;0.000;2024-01-10T08:20:45;101288.97;;;-1.07;100.00
76858;BME280;65830;0.000;0.000;2024-01-10T08:23:11;101282.97;;;-1.11;100.00
76858;BME280;65830;0.000;0.000;2024-01-10T08:25:37;101291.38;;;-0.95;100.00
76858;BME280;65830;0.000;0.000;2024-01-10T08:28:03;101295.91;;;-1.06;100.00
76858;BME280;65830;0.000;0.000;2024-01-10T08:30:29;101284.59;;;-1.05;100.00
76858;BME280;65830;0.000;0.000;2024-01-10T08:32:54;101282.88;;;-1.06;99.48
76858;BME280;65830;0.000;0.000;2024-01-10T08:35:20;101294.75;;;-0.90;99.54
76858;BME280;65830;0.000;0.000;2024-01-10T08:37:45;101281.72;;;-0.90;98.03
76858;BME280;65830;0.000;0.000;2024-01-10T08:40:11;101282.78;;;-1.02;97.68
76858;BME280;65830;0.000;0.000;2024-01-10T08:42:40;101280.88;;;-0.90;97.57
76858;BME280;65830;0.000;0.000;2024-01-10T08:45:05;101279.81;;;-0.78;96.73
76858;BME280;65830;0.000;0.000;2024-01-10T08:47:31;101288.22;;;-0.64;96.17
76858;BME280;65830;0.000;0.000;2024-01-10T08:49:58;101288.31;;;-0.67;95.31
76858;BME280;65830;0.000;0.000;2024-01-10T08:52:23;101285.59;;;-0.61;95.51
76858;BME280;65830;0.000;0.000;2024-01-10T08:54:49;101283.09;;;-0.67;96.52
76858;BME280;65830;0.000;0.000;2024-01-10T08:57:14;101280.50;;;-0.69;96.03
76858;BME280;65830;0.000;0.000;2024-01-10T08:59:43;101274.84;;;-0.46;94.97
76858;BME280;65830;0.000;0.000;2024-01-10T09:02:09;101279.66;;;-0.24;93.08
76858;BME280;65830;0.000;0.000;2024-01-10T09:04:34;101267.94;;;-0.48;91.23
76858;BME280;65830;0.000;0.000;2024-01-10T09:07:00;101270.13;;;-0.25;89.82
76858;BME280;65830;0.000;0.000;2024-01-10T09:09:25;101256.94;;;-0.17;89.66
76858;BME280;65830;0.000;0.000;2024-01-10T09:11:51;101264.25;;;-0.36;89.74
76858;BME280;65830;0.000;0.000;2024-01-10T09:14:16;101263.28;;;-0.32;90.58
76858;BME280;65830;0.000;0.000;2024-01-10T09:16:42;101264.06;;;-0.26;90.75
76858;BME280;65830;0.000;0.000;2024-01-10T09:19:07;101266.69;;;-0.27;89.93
76858;BME280;65830;0.000;0.000;2024-01-10T09:21:35;101256.97;;;-0.21;88.66
76858;BME280;65830;0.000;0.000;2024-01-10T09:24:00;101261.06;;;-0.51;88.16
76858;BME280;65830;0.000;0.000;2024-01-10T09:26:26;101257.09;;;-0.27;88.88
76858;BME280;65830;0.000;0.000;2024-01-10T09:28:51;101268.06;;;-0.09;86.31
76858;BME280;65830;0.000;0.000;2024-01-10T09:31:17;101259.28;;;-0.05;83.40
76858;BME280;65830;0.000;0.000;2024-01-10T09:33:42;101267.38;;;0.23;83.89
76858;BME280;65830;0.000;0.000;2024-01-10T09:36:08;101262.69;;;0.75;86.72
76858;BME280;65830;0.000;0.000;2024-01-10T09:38:37;101258.69;;;0.96;87.50
76858;BME280;65830;0.000;0.000;2024-01-10T09:41:05;101249.19;;;1.28;85.78
76858;BME280;65830;0.000;0.000;2024-01-10T09:43:31;101252.34;;;1.06;83.93
76858;BME280;65830;0.000;0.000;2024-01-10T09:45:58;101255.50;;;0.85;84.94
76858;BME280;65830;0.000;0.000;2024-01-10T09:48:24;101243.22;;;0.52;86.41
76858;BME280;65830;0.000;0.000;2024-01-10T09:50:50;101239.00;;;0.47;87.69
76858;BME280;65830;0.000;0.000;2024-01-10T09:53:23;101244.91;;;0.53;89.17
76858;BME280;65830;0.000;0.000;2024-01-10T09:55:49;101244.94;;;0.89;88.09
76858;BME280;65830;0.000;0.000;2024-01-10T09:58:14;101236.00;;;0.98;86.29
76858;BME280;65830;0.000;0.000;2024-01-10T10:00:40;101232.91;;;1.16;85.45
76858;BME280;65830;0.000;0.000;2024-01-10T10:03:09;101232.38;;;1.36;83.91
76858;BME280;65830;0.000;0.000;2024-01-10T10:05:41;101230.13;;;1.55;79.71
76858;BME280;65830;0.000;0.000;2024-01-10T10:08:07;101225.25;;;1.42;77.73
76858;BME280;65830;0.000;0.000;2024-01-10T10:10:35;101213.06;;;1.72;79.01
76858;BME280;65830;0.000;0.000;2024-01-10T10:13:00;101224.34;;;2.04;80.28
76858;BME280;65830;0.000;0.000;2024-01-10T10:15:27;101218.06;;;2.37;77.62
76858;BME280;65830;0.000;0.000;2024-01-10T10:17:53;101216.56;;;2.30;76.21
76858;BME280;65830;0.000;0.000;2024-01-10T10:20:20;101221.03;;;2.27;74.35
76858;BME280;65830;0.000;0.000;2024-01-10T10:22:59;101214.00;;;2.01;74.40
76858;BME280;65830;0.000;0.000;2024-01-10T10:25:29;101199.09;;;1.73;77.29
76858;BME280;65830;0.000;0.000;2024-01-10T10:27:56;101204.03;;;2.12;73.86
76858;BME280;65830;0.000;0.000;2024-01-10T10:30:21;101201.09;;;2.23;74.14
76858;BME280;65830;0.000;0.000;2024-01-10T10:32:47;101199.56;;;2.15;74.71
76858;BME280;65830;0.000;0.000;2024-01-10T10:35:13;101201.94;;;2.23;75.11
76858;BME280;65830;0.000;0.000;2024-01-10T10:37:38;101187.88;;;1.97;74.71
76858;BME280;65830;0.000;0.000;2024-01-10T10:40:04;101187.84;;;2.27;74.25
76858;BME280;65830;0.000;0.000;2024-01-10T10:42:30;101183.31;;;2.32;75.23
76858;BME280;65830;0.000;0.000;2024-01-10T10:44:57;101186.00;;;2.31;74.66
76858;BME280;65830;0.000;0.000;2024-01-10T10:47:23;101185.94;;;2.59;73.67
76858;BME280;65830;0.000;0.000;2024-01-10T10:49:51;101186.41;;;2.72;71.59
76858;BME280;65830;0.000;0.000;2024-01-10T10:52:19;101177.84;;;2.40;72.36
76858;BME280;65830;0.000;0.000;2024-01-10T10:54:47;101176.84;;;1.88;73.19
76858;BME280;65830;0.000;0.000;2024-01-10T10:57:13;101168.97;;;2.44;72.03
76858;BME280;65830;0.000;0.000;2024-01-10T10:59:39;101164.97;;;2.59;70.60
76858;BME280;65830;0.000;0.000;2024-01-10T11:02:07;101168.66;;;2.53;70.49
76858;BME280;65830;0.000;0.000;2024-01-10T11:04:33;101163.44;;;1.98;71.65
76858;BME280;65830;0.000;0.000;2024-01-10T11:07:00;101155.69;;;1.94;74.33
76858;BME280;65830;0.000;0.000;2024-01-10T11:09:25;101152.91;;;2.55;75.20
76858;BME280;65830;0.000;0.000;2024-01-10T11:14:46;101148.41;;;3.09;66.69
76858;BME280;65830;0.000;0.000;2024-01-10T11:25:08;101142.53;;;3.96;61.20
76858;BME280;65830;0.000;0.000;2024-01-10T11:27:36;101137.16;;;4.00;60.51
76858;BME280;65830;0.000;0.000;2024-01-10T11:30:02;101135.50;;;4.19;59.88
76858;BME280;65830;0.000;0.000;2024-01-10T11:32:30;101134.34;;;4.26;59.85
76858;BME280;65830;0.000;0.000;2024-01-10T11:34:59;101125.84;;;4.20;60.35
76858;BME280;65830;0.000;0.000;2024-01-10T11:37:44;101126.94;;;4.36;59.25
76858;BME280;65830;0.000;0.000;2024-01-10T11:40:09;101119.78;;;6.16;54.81
76858;BME280;65830;0.000;0.000;2024-01-10T11:42:40;101114.78;;;7.15;51.80
76858;BME280;65830;0.000;0.000;2024-01-10T11:45:06;101119.09;;;8.29;49.35
76858;BME280;65830;0.000;0.000;2024-01-10T11:47:32;101114.44;;;9.79;44.70
76858;BME280;65830;0.000;0.000;2024-01-10T11:49:59;101115.91;;;10.25;41.94
76858;BME280;65830;0.000;0.000;2024-01-10T11:52:34;101109.44;;;10.69;43.53
76858;BME280;65830;0.000;0.000;2024-01-10T11:55:00;101105.66;;;9.50;42.06
76858;BME280;65830;0.000;0.000;2024-01-10T11:57:27;101096.00;;;9.90;41.57
76858;BME280;65830;0.000;0.000;2024-01-10T11:59:53;101095.81;;;9.52;42.99
76858;BME280;65830;0.000;0.000;2024-01-10T12:02:19;101097.75;;;10.71;42.69
76858;BME280;65830;0.000;0.000;2024-01-10T12:04:46;101092.72;;;11.81;38.74
76858;BME280;65830;0.000;0.000;2024-01-10T12:07:12;101092.81;;;9.85;42.03
76858;BME280;65830;0.000;0.000;2024-01-10T12:09:37;101089.22;;;9.02;43.18
76858;BME280;65830;0.000;0.000;2024-01-10T12:12:03;101097.06;;;8.28;46.16
76858;BME280;65830;0.000;0.000;2024-01-10T12:14:29;101091.25;;;7.60;48.04
76858;BME280;65830;0.000;0.000;2024-01-10T12:16:56;101085.63;;;7.98;46.81
76858;BME280;65830;0.000;0.000;2024-01-10T12:19:21;101085.69;;;8.72;45.94
76858;BME280;65830;0.000;0.000;2024-01-10T12:21:48;101076.25;;;8.83;46.06
76858;BME280;65830;0.000;0.000;2024-01-10T12:24:13;101076.41;;;8.35;45.26
76858;BME280;65830;0.000;0.000;2024-01-10T12:26:45;101069.66;;;9.04;43.64
76858;BME280;65830;0.000;0.000;2024-01-10T12:29:11;101069.34;;;9.23;44.28
76858;BME280;65830;0.000;0.000;2024-01-10T12:31:37;101070.31;;;9.08;44.06
76858;BME280;65830;0.000;0.000;2024-01-10T12:34:03;101063.13;;;8.95;44.56
76858;BME280;65830;0.000;0.000;2024-01-10T12:36:28;101065.13;;;8.92;43.84
76858;BME280;65830;0.000;0.000;2024-01-10T12:38:54;101067.44;;;8.07;45.07
76858;BME280;65830;0.000;0.000;2024-01-10T12:41:20;101068.75;;;8.61;45.30
76858;BME280;65830;0.000;0.000;2024-01-10T12:43:49;101061.03;;;9.29;44.20
76858;BME280;65830;0.000;0.000;2024-01-10T12:46:15;101060.84;;;11.44;39.43
76858;BME280;65830;0.000;0.000;2024-01-10T12:48:41;101056.19;;;11.35;38.96
76858;BME280;65830;0.000;0.000;2024-01-10T12:51:10;101052.75;;;10.17;40.91
76858;BME280;65830;0.000;0.000;2024-01-10T12:53:37;101059.19;;;11.17;39.26
76858;BME280;65830;0.000;0.000;2024-01-10T12:56:03;101061.53;;;10.18;41.46
76858;BME280;65830;0.000;0.000;2024-01-10T12:58:30;101053.81;;;9.87;42.72
76858;BME280;65830;0.000;0.000;2024-01-10T13:00:55;101056.97;;;11.24;39.81
76858;BME280;65830;0.000;0.000;2024-01-10T13:03:21;101055.28;;;10.97;39.56
76858;BME280;65830;0.000;0.000;2024-01-10T13:05:47;101059.06;;;9.04;43.50
76858;BME280;65830;0.000;0.000;2024-01-10T13:08:13;101050.88;;;8.50;44.61